sensor_id;sensor_type;location;lat;lon;timestamp;P1;durP1;ratioP1;P2;durP2;ratioP2
64244;SDS011;50584;29.058;-110.966;2023-04-03T00:00:33;2.63;;;1.17;;
64244;SDS011;50584;29.058;-110.966;2023-04-03T00:02:58;2.90;;;1.58;;
64244;SDS011;50584;29.058;-110.966;2023-04-03T00:05:24;1.25;;;1.15;;
64244;SDS011;50584;29.058;-110.966;2023-04-03T00:07:50;2.40;;;1.20;;
64244;SDS011;50584;29.058;-110.966;2023-04-03T00:10:16;4.57;;;1.20;;
64244;SDS011;50584;29.058;-110.966;2023-04-03T00:12:42;3.55;;;1.33;;
64244;SDS011;50584;29.058;-110.966;2023-04-03T00:15:08;2.17;;;1.30;;
64244;SDS011;50584;29.058;-110.966;2023-04-03T00:17:34;2.17;;;1.52;;
64244;SDS011;50584;29.058;-110.966;2023-04-03T00:19:59;4.43;;;1.70;;
64244;SDS011;50584;29.058;-110.966;2023-04-03T00:22:25;7.63;;;1.50;;
64244;SDS011;50584;29.058;-110.966;2023-04-03T00:24:54;4.00;;;1.27;;
64244;SDS011;50584;29.058;-110.966;2023-04-03T00:27:20;9.90;;;1.38;;
64244;SDS011;50584;29.058;-110.966;2023-04-03T00:29:46;6.47;;;1.60;;
64244;SDS011;50584;29.058;-110.966;2023-04-03T00:32:12;4.97;;;2.25;;
64244;SDS011;50584;29.058;-110.966;2023-04-03T00:34:38;7.15;;;3.17;;
64244;SDS011;50584;29.058;-110.966;2023-04-03T00:37:03;8.68;;;1.80;;
64244;SDS011;50584;29.058;-110.966;2023-04-03T00:39:30;3.45;;;1.20;;
64244;SDS011;50584;29.058;-110.966;2023-04-03T00:41:55;19.15;;;2.03;;
64244;SDS011;50584;29.058;-110.966;2023-04-03T00:44:22;4.90;;;1.70;;
64244;SDS011;50584;29.058;-110.966;2023-04-03T00:47:08;5.47;;;1.70;;
64244;SDS011;50584;29.058;-110.966;2023-04-03T00:49:35;9.60;;;1.60;;
64244;SDS011;50584;29.058;-110.966;2023-04-03T00:52:01;6.72;;;1.67;;
64244;SDS011;50584;29.058;-110.966;2023-04-03T00:54:27;4.80;;;1.20;;
64244;SDS011;50584;29.058;-110.966;2023-04-03T00:56:53;6.85;;;1.40;;
64244;SDS011;50584;29.058;-110.966;2023-04-03T00:59:21;6.05;;;1.40;;
64244;SDS011;50584;29.058;-110.966;2023-04-03T01:01:51;4.68;;;1.48;;
64244;SDS011;50584;29.058;-110.966;2023-04-03T01:04:30;3.78;;;1.65;;
64244;SDS011;50584;29.058;-110.966;2023-04-03T01:07:02;6.97;;;1.50;;
64244;SDS011;50584;29.058;-110.966;2023-04-03T01:09:29;5.70;;;1.90;;
64244;SDS011;50584;29.058;-110.966;2023-04-03T01:12:13;4.72;;;1.90;;
64244;SDS011;50584;29.058;-110.966;2023-04-03T01:14:39;2.55;;;1.98;;
64244;SDS011;50584;29.058;-110.966;2023-04-03T01:17:23;5.78;;;1.80;;
64244;SDS011;50584;29.058;-110.966;2023-04-03T01:19:51;7.28;;;1.70;;
64244;SDS011;50584;29.058;-110.966;2023-04-03T01:22:26;23.00;;;2.30;;
64244;SDS011;50584;29.058;-110.966;2023-04-03T01:24:54;11.20;;;2.00;;
64244;SDS011;50584;29.058;-110.966;2023-04-03T01:27:20;10.30;;;1.77;;
64244;SDS011;50584;29.058;-110.966;2023-04-03T01:29:46;2.75;;;1.60;;
64244;SDS011;50584;29.058;-110.966;2023-04-03T01:32:12;4.25;;;1.70;;
64244;SDS011;50584;29.058;-110.966;2023-04-03T01:34:40;8.55;;;1.85;;
64244;SDS011;50584;29.058;-110.966;2023-04-03T01:37:06;5.72;;;1.70;;
64244;SDS011;50584;29.058;-110.966;2023-04-03T01:39:31;3.35;;;1.60;;
64244;SDS011;50584;29.058;-110.966;2023-04-03T01:41:57;7.72;;;1.58;;
64244;SDS011;50584;29.058;-110.966;2023-04-03T01:44:24;11.68;;;1.50;;
64244;SDS011;50584;29.058;-110.966;2023-04-03T01:46:50;7.55;;;1.40;;
64244;SDS011;50584;29.058;-110.966;2023-04-03T01:49:16;3.80;;;1.70;;
64244;SDS011;50584;29.058;-110.966;2023-04-03T01:51:42;4.28;;;1.42;;
64244;SDS011;50584;29.058;-110.966;2023-04-03T01:54:08;19.13;;;1.70;;
64244;SDS011;50584;29.058;-110.966;2023-04-03T01:56:37;4.78;;;1.60;;
64244;SDS011;50584;29.058;-110.966;2023-04-03T01:59:04;9.30;;;1.80;;
64244;SDS011;50584;29.058;-110.966;2023-04-03T02:01:30;2.55;;;1.30;;
64244;SDS011;50584;29.058;-110.966;2023-04-03T02:03:56;3.60;;;1.63;;
64244;SDS011;50584;29.058;-110.966;2023-04-03T02:06:23;12.45;;;1.65;;
64244;SDS011;50584;29.058;-110.966;2023-04-03T02:08:50;15.70;;;1.75;;
64244;SDS011;50584;29.058;-110.966;2023-04-03T02:11:16;8.38;;;1.20;;
64244;SDS011;50584;29.058;-110.966;2023-04-03T02:13:42;10.52;;;1.63;;
64244;SDS011;50584;29.058;-110.966;2023-04-03T02:16:08;18.17;;;1.63;;
64244;SDS011;50584;29.058;-110.966;2023-04-03T02:18:36;5.78;;;1.67;;
64244;SDS011;50584;29.058;-110.966;2023-04-03T02:21:04;12.55;;;1.10;;
64244;SDS011;50584;29.058;-110.966;2023-04-03T02:23:30;13.10;;;2.40;;
64244;SDS011;50584;29.058;-110.966;2023-04-03T02:26:07;6.32;;;1.50;;
64244;SDS011;50584;29.058;-110.966;2023-04-03T02:28:35;4.55;;;1.10;;
64244;SDS011;50584;29.058;-110.966;2023-04-03T02:31:02;5.22;;;1.20;;
64244;SDS011;50584;29.058;-110.966;2023-04-03T02:33:28;5.10;;;1.90;;
64244;SDS011;50584;29.058;-110.966;2023-04-03T02:35:54;6.97;;;1.38;;
64244;SDS011;50584;29.058;-110.966;2023-04-03T02:38:21;3.28;;;1.30;;
64244;SDS011;50584;29.058;-110.966;2023-04-03T02:40:46;11.15;;;3.80;;
64244;SDS011;50584;29.058;-110.966;2023-04-03T02:43:12;8.25;;;1.52;;
64244;SDS011;50584;29.058;-110.966;2023-04-03T02:45:38;6.63;;;1.70;;
64244;SDS011;50584;29.058;-110.966;2023-04-03T02:48:04;12.93;;;2.10;;
64244;SDS011;50584;29.058;-110.966;2023-04-03T02:50:30;10.35;;;2.47;;
64244;SDS011;50584;29.058;-110.966;2023-04-03T02:52:56;11.80;;;2.15;;
64244;SDS011;50584;29.058;-110.966;2023-04-03T02:55:21;11.25;;;1.77;;
64244;SDS011;50584;29.058;-110.966;2023-04-03T02:57:47;12.27;;;1.60;;
64244;SDS011;50584;29.058;-110.966;2023-04-03T03:00:13;5.55;;;1.40;;
64244;SDS011;50584;29.058;-110.966;2023-04-03T03:02:39;8.73;;;1.42;;
64244;SDS011;50584;29.058;-110.966;2023-04-03T03:05:05;7.32;;;1.58;;
64244;SDS011;50584;29.058;-110.966;2023-04-03T03:07:31;4.97;;;1.40;;
64244;SDS011;50584;29.058;-110.966;2023-04-03T03:09:57;9.30;;;1.35;;
64244;SDS011;50584;29.058;-110.966;2023-04-03T03:12:23;8.93;;;1.77;;
64244;SDS011;50584;29.058;-110.966;2023-04-03T03:14:49;6.95;;;1.17;;
64244;SDS011;50584;29.058;-110.966;2023-04-03T03:17:15;6.65;;;1.40;;
64244;SDS011;50584;29.058;-110.966;2023-04-03T03:19:42;7.45;;;1.50;;
64244;SDS011;50584;29.058;-110.966;2023-04-03T03:22:07;3.53;;;1.30;;
64244;SDS011;50584;29.058;-110.966;2023-04-03T03:24:33;7.60;;;1.95;;
64244;SDS011;50584;29.058;-110.966;2023-04-03T03:26:59;4.88;;;1.65;;
64244;SDS011;50584;29.058;-110.966;2023-04-03T03:29:25;10.60;;;2.58;;
64244;SDS011;50584;29.058;-110.966;2023-04-03T03:31:51;8.38;;;1.60;;
64244;SDS011;50584;29.058;-110.966;2023-04-03T03:34:17;16.77;;;1.90;;
64244;SDS011;50584;29.058;-110.966;2023-04-03T03:36:42;10.90;;;2.40;;
64244;SDS011;50584;29.058;-110.966;2023-04-03T03:39:09;10.65;;;3.00;;
64244;SDS011;50584;29.058;-110.966;2023-04-03T03:41:35;11.95;;;1.70;;
64244;SDS011;50584;29.058;-110.966;2023-04-03T03:44:00;10.73;;;1.35;;
64244;SDS011;50584;29.058;-110.966;2023-04-03T03:46:26;8.80;;;1.80;;
64244;SDS011;50584;29.058;-110.966;2023-04-03T03:48:52;12.18;;;1.60;;
64244;SDS011;50584;29.058;-110.966;2023-04-03T03:51:18;3.83;;;1.42;;
64244;SDS011;50584;29.058;-110.966;2023-04-03T03:53:44;6.97;;;1.27;;
64244;SDS011;50584;29.058;-110.966;2023-04-03T03:56:10;3.10;;;1.50;;
64244;SDS011;50584;29.058;-110.966;2023-04-03T03:58:35;11.23;;;1.88;;
64244;SDS011;50584;29.058;-110.966;2023-04-03T04:01:02;8.00;;;1.58;;
64244;SDS011;50584;29.058;-110.966;2023-04-03T04:03:28;6.85;;;1.50;;
64244;SDS011;50584;29.058;-110.966;2023-04-03T04:05:54;11.32;;;1.40;;
64244;SDS011;50584;29.058;-110.966;2023-04-03T04:08:20;8.25;;;1.63;;
64244;SDS011;50584;29.058;-110.966;2023-04-03T04:10:46;5.93;;;2.13;;
64244;SDS011;50584;29.058;-110.966;2023-04-03T04:13:11;9.40;;;1.83;;
64244;SDS011;50584;29.058;-110.966;2023-04-03T04:15:37;3.50;;;2.20;;
64244;SDS011;50584;29.058;-110.966;2023-04-03T04:18:03;3.60;;;2.08;;
64244;SDS011;50584;29.058;-110.966;2023-04-03T04:20:29;3.88;;;1.85;;
64244;SDS011;50584;29.058;-110.966;2023-04-03T04:22:55;11.35;;;1.90;;
64244;SDS011;50584;29.058;-110.966;2023-04-03T04:25:20;4.97;;;2.50;;
64244;SDS011;50584;29.058;-110.966;2023-04-03T04:27:46;4.25;;;2.00;;
64244;SDS011;50584;29.058;-110.966;2023-04-03T04:30:12;6.00;;;2.13;;
64244;SDS011;50584;29.058;-110.966;2023-04-03T04:32:38;13.27;;;2.55;;
64244;SDS011;50584;29.058;-110.966;2023-04-03T04:35:04;12.27;;;4.07;;
64244;SDS011;50584;29.058;-110.966;2023-04-03T04:37:31;11.68;;;4.07;;
64244;SDS011;50584;29.058;-110.966;2023-04-03T04:39:56;12.48;;;3.22;;
64244;SDS011;50584;29.058;-110.966;2023-04-03T04:42:22;15.10;;;3.30;;
64244;SDS011;50584;29.058;-110.966;2023-04-03T04:44:48;6.00;;;3.03;;
64244;SDS011;50584;29.058;-110.966;2023-04-03T04:47:14;11.43;;;3.00;;
64244;SDS011;50584;29.058;-110.966;2023-04-03T04:49:39;16.48;;;3.40;;
64244;SDS011;50584;29.058;-110.966;2023-04-03T04:52:05;14.30;;;3.60;;
64244;SDS011;50584;29.058;-110.966;2023-04-03T04:54:31;15.45;;;3.40;;
64244;SDS011;50584;29.058;-110.966;2023-04-03T04:56:57;14.82;;;4.45;;
64244;SDS011;50584;29.058;-110.966;2023-04-03T04:59:23;6.43;;;3.22;;
64244;SDS011;50584;29.058;-110.966;2023-04-03T05:01:49;12.48;;;5.13;;
64244;SDS011;50584;29.058;-110.966;2023-04-03T05:04:15;12.13;;;4.20;;
64244;SDS011;50584;29.058;-110.966;2023-04-03T05:06:41;6.60;;;2.80;;
64244;SDS011;50584;29.058;-110.966;2023-04-03T05:09:07;4.43;;;3.28;;
64244;SDS011;50584;29.058;-110.966;2023-04-03T05:11:34;8.57;;;3.50;;
64244;SDS011;50584;29.058;-110.966;2023-04-03T05:14:00;10.02;;;3.38;;
64244;SDS011;50584;29.058;-110.966;2023-04-03T05:16:25;8.02;;;3.58;;
64244;SDS011;50584;29.058;-110.966;2023-04-03T05:18:51;11.75;;;4.20;;
64244;SDS011;50584;29.058;-110.966;2023-04-03T05:21:17;13.52;;;3.95;;
64244;SDS011;50584;29.058;-110.966;2023-04-03T05:23:48;9.70;;;4.07;;
64244;SDS011;50584;29.058;-110.966;2023-04-03T05:26:14;12.23;;;3.80;;
64244;SDS011;50584;29.058;-110.966;2023-04-03T05:28:39;3.97;;;3.67;;
64244;SDS011;50584;29.058;-110.966;2023-04-03T05:31:05;9.30;;;4.40;;
64244;SDS011;50584;29.058;-110.966;2023-04-03T05:33:31;10.30;;;4.82;;
64244;SDS011;50584;29.058;-110.966;2023-04-03T05:35:57;14.80;;;4.97;;
64244;SDS011;50584;29.058;-110.966;2023-04-03T05:38:26;6.20;;;3.80;;
64244;SDS011;50584;29.058;-110.966;2023-04-03T05:40:54;9.75;;;4.70;;
64244;SDS011;50584;29.058;-110.966;2023-04-03T05:43:19;13.65;;;4.15;;
64244;SDS011;50584;29.058;-110.966;2023-04-03T05:45:46;6.15;;;3.58;;
64244;SDS011;50584;29.058;-110.966;2023-04-03T05:48:12;12.43;;;4.10;;
64244;SDS011;50584;29.058;-110.966;2023-04-03T05:50:38;13.00;;;3.28;;
64244;SDS011;50584;29.058;-110.966;2023-04-03T05:53:06;14.27;;;4.47;;
64244;SDS011;50584;29.058;-110.966;2023-04-03T05:55:32;3.42;;;3.13;;
64244;SDS011;50584;29.058;-110.966;2023-04-03T05:57:58;4.38;;;3.15;;
64244;SDS011;50584;29.058;-110.966;2023-04-03T06:00:24;7.55;;;2.95;;
64244;SDS011;50584;29.058;-110.966;2023-04-03T06:02:50;11.32;;;3.35;;
64244;SDS011;50584;29.058;-110.966;2023-04-03T06:05:15;5.88;;;3.13;;
64244;SDS011;50584;29.058;-110.966;2023-04-03T06:07:42;5.72;;;3.42;;
64244;SDS011;50584;29.058;-110.966;2023-04-03T06:10:10;5.68;;;2.70;;
64244;SDS011;50584;29.058;-110.966;2023-04-03T06:12:36;4.47;;;2.38;;
64244;SDS011;50584;29.058;-110.966;2023-04-03T06:15:02;4.85;;;3.10;;
64244;SDS011;50584;29.058;-110.966;2023-04-03T06:17:28;5.47;;;2.40;;
64244;SDS011;50584;29.058;-110.966;2023-04-03T06:19:55;5.72;;;2.42;;
64244;SDS011;50584;29.058;-110.966;2023-04-03T06:22:21;5.00;;;2.33;;
64244;SDS011;50584;29.058;-110.966;2023-04-03T06:24:46;5.68;;;2.30;;
64244;SDS011;50584;29.058;-110.966;2023-04-03T06:27:12;10.43;;;3.10;;
64244;SDS011;50584;29.058;-110.966;2023-04-03T06:29:38;4.75;;;3.08;;
64244;SDS011;50584;29.058;-110.966;2023-04-03T06:32:04;5.38;;;3.35;;
64244;SDS011;50584;29.058;-110.966;2023-04-03T06:34:30;8.85;;;3.65;;
64244;SDS011;50584;29.058;-110.966;2023-04-03T06:36:56;9.65;;;3.60;;
64244;SDS011;50584;29.058;-110.966;2023-04-03T06:39:22;5.38;;;3.40;;
64244;SDS011;50584;29.058;-110.966;2023-04-03T06:41:48;17.00;;;3.85;;
64244;SDS011;50584;29.058;-110.966;2023-04-03T06:44:14;8.57;;;3.20;;
64244;SDS011;50584;29.058;-110.966;2023-04-03T06:46:42;9.73;;;3.40;;
64244;SDS011;50584;29.058;-110.966;2023-04-03T06:49:08;9.85;;;2.97;;
64244;SDS011;50584;29.058;-110.966;2023-04-03T06:51:34;8.77;;;2.50;;
64244;SDS011;50584;29.058;-110.966;2023-04-03T06:54:01;5.38;;;2.53;;
64244;SDS011;50584;29.058;-110.966;2023-04-03T06:56:27;4.97;;;2.58;;
64244;SDS011;50584;29.058;-110.966;2023-04-03T06:58:53;10.02;;;2.13;;
64244;SDS011;50584;29.058;-110.966;2023-04-03T07:01:25;6.53;;;3.33;;
64244;SDS011;50584;29.058;-110.966;2023-04-03T07:03:53;4.82;;;2.50;;
64244;SDS011;50584;29.058;-110.966;2023-04-03T07:06:18;5.82;;;2.47;;
64244;SDS011;50584;29.058;-110.966;2023-04-03T07:08:44;10.20;;;3.65;;
64244;SDS011;50584;29.058;-110.966;2023-04-03T07:11:11;7.78;;;3.15;;
64244;SDS011;50584;29.058;-110.966;2023-04-03T07:13:37;7.40;;;2.50;;
64244;SDS011;50584;29.058;-110.966;2023-04-03T07:16:02;10.00;;;2.72;;
64244;SDS011;50584;29.058;-110.966;2023-04-03T07:18:30;9.88;;;2.72;;
64244;SDS011;50584;29.058;-110.966;2023-04-03T07:20:56;7.43;;;2.67;;
64244;SDS011;50584;29.058;-110.966;2023-04-03T07:23:22;11.63;;;2.20;;
64244;SDS011;50584;29.058;-110.966;2023-04-03T07:25:48;12.70;;;2.55;;
64244;SDS011;50584;29.058;-110.966;2023-04-03T07:28:15;4.97;;;2.13;;
64244;SDS011;50584;29.058;-110.966;2023-04-03T07:30:44;2.55;;;2.10;;
64244;SDS011;50584;29.058;-110.966;2023-04-03T07:33:11;8.07;;;2.03;;
64244;SDS011;50584;29.058;-110.966;2023-04-03T07:35:37;14.90;;;1.95;;
64244;SDS011;50584;29.058;-110.966;2023-04-03T07:38:03;10.13;;;2.10;;
64244;SDS011;50584;29.058;-110.966;2023-04-03T07:40:28;7.30;;;1.95;;
64244;SDS011;50584;29.058;-110.966;2023-04-03T07:42:54;7.63;;;2.28;;
64244;SDS011;50584;29.058;-110.966;2023-04-03T07:45:21;2.75;;;1.50;;
64244;SDS011;50584;29.058;-110.966;2023-04-03T07:47:48;4.72;;;1.90;;
64244;SDS011;50584;29.058;-110.966;2023-04-03T07:50:14;3.72;;;2.45;;
64244;SDS011;50584;29.058;-110.966;2023-04-03T07:52:39;2.42;;;1.80;;
64244;SDS011;50584;29.058;-110.966;2023-04-03T07:55:05;9.95;;;1.98;;
64244;SDS011;50584;29.058;-110.966;2023-04-03T07:57:31;12.40;;;2.78;;
64244;SDS011;50584;29.058;-110.966;2023-04-03T07:59:57;8.63;;;2.67;;
64244;SDS011;50584;29.058;-110.966;2023-04-03T08:02:23;7.50;;;2.45;;
64244;SDS011;50584;29.058;-110.966;2023-04-03T08:04:49;2.42;;;1.90;;
64244;SDS011;50584;29.058;-110.966;2023-04-03T08:07:14;2.38;;;1.70;;
64244;SDS011;50584;29.058;-110.966;2023-04-03T08:09:40;5.68;;;1.88;;
64244;SDS011;50584;29.058;-110.966;2023-04-03T08:12:07;10.48;;;2.10;;
64244;SDS011;50584;29.058;-110.966;2023-04-03T08:14:32;5.60;;;2.50;;
64244;SDS011;50584;29.058;-110.966;2023-04-03T08:17:01;15.80;;;2.47;;
64244;SDS011;50584;29.058;-110.966;2023-04-03T08:19:29;10.90;;;1.80;;
64244;SDS011;50584;29.058;-110.966;2023-04-03T08:21:55;7.43;;;2.30;;
64244;SDS011;50584;29.058;-110.966;2023-04-03T08:24:22;11.65;;;2.15;;
64244;SDS011;50584;29.058;-110.966;2023-04-03T08:26:48;7.40;;;1.95;;
64244;SDS011;50584;29.058;-110.966;2023-04-03T08:29:14;10.75;;;2.28;;
64244;SDS011;50584;29.058;-110.966;2023-04-03T08:31:40;1.60;;;1.50;;
64244;SDS011;50584;29.058;-110.966;2023-04-03T08:34:06;5.38;;;1.80;;
64244;SDS011;50584;29.058;-110.966;2023-04-03T08:36:31;3.92;;;1.90;;
64244;SDS011;50584;29.058;-110.966;2023-04-03T08:38:57;8.15;;;2.08;;
64244;SDS011;50584;29.058;-110.966;2023-04-03T08:41:32;8.38;;;1.63;;
64244;SDS011;50584;29.058;-110.966;2023-04-03T08:44:14;5.63;;;1.70;;
64244;SDS011;50584;29.058;-110.966;2023-04-03T08:50:01;4.72;;;2.30;;
64244;SDS011;50584;29.058;-110.966;2023-04-03T08:52:14;12.60;;;2.63;;
64244;SDS011;50584;29.058;-110.966;2023-04-03T08:57:16;6.15;;;2.63;;
64244;SDS011;50584;29.058;-110.966;2023-04-03T08:59:43;7.25;;;2.88;;
64244;SDS011;50584;29.058;-110.966;2023-04-03T09:02:17;8.68;;;2.30;;
64244;SDS011;50584;29.058;-110.966;2023-04-03T09:04:46;14.05;;;3.75;;
64244;SDS011;50584;29.058;-110.966;2023-04-03T09:07:16;8.77;;;4.10;;
64244;SDS011;50584;29.058;-110.966;2023-04-03T09:09:43;5.90;;;3.38;;
64244;SDS011;50584;29.058;-110.966;2023-04-03T09:17:36;10.85;;;3.30;;
64244;SDS011;50584;29.058;-110.966;2023-04-03T09:22:49;10.75;;;3.63;;
64244;SDS011;50584;29.058;-110.966;2023-04-03T09:25:23;6.55;;;3.05;;
64244;SDS011;50584;29.058;-110.966;2023-04-03T09:27:49;9.63;;;2.97;;
64244;SDS011;50584;29.058;-110.966;2023-04-03T09:30:17;12.55;;;3.22;;
64244;SDS011;50584;29.058;-110.966;2023-04-03T09:32:47;6.97;;;3.03;;
64244;SDS011;50584;29.058;-110.966;2023-04-03T09:35:24;7.63;;;3.53;;
64244;SDS011;50584;29.058;-110.966;2023-04-03T09:37:58;7.90;;;3.10;;
64244;SDS011;50584;29.058;-110.966;2023-04-03T09:42:51;6.70;;;2.58;;
64244;SDS011;50584;29.058;-110.966;2023-04-03T09:45:25;9.35;;;2.60;;
64244;SDS011;50584;29.058;-110.966;2023-04-03T09:48:25;6.45;;;2.25;;
64244;SDS011;50584;29.058;-110.966;2023-04-03T09:53:36;5.80;;;2.17;;
64244;SDS011;50584;29.058;-110.966;2023-04-03T09:56:03;9.25;;;2.75;;
64244;SDS011;50584;29.058;-110.966;2023-04-03T09:58:39;9.30;;;3.08;;
64244;SDS011;50584;29.058;-110.966;2023-04-03T10:01:56;14.80;;;2.70;;
64244;SDS011;50584;29.058;-110.966;2023-04-03T10:04:05;12.27;;;3.13;;
64244;SDS011;50584;29.058;-110.966;2023-04-03T10:06:32;10.65;;;2.78;;
64244;SDS011;50584;29.058;-110.966;2023-04-03T10:09:02;7.63;;;2.90;;
64244;SDS011;50584;29.058;-110.966;2023-04-03T10:11:29;6.70;;;3.35;;
64244;SDS011;50584;29.058;-110.966;2023-04-03T10:19:30;5.28;;;3.08;;
64244;SDS011;50584;29.058;-110.966;2023-04-03T10:21:59;4.18;;;2.88;;
64244;SDS011;50584;29.058;-110.966;2023-04-03T10:25:00;5.10;;;2.50;;
64244;SDS011;50584;29.058;-110.966;2023-04-03T10:27:28;14.10;;;3.58;;
64244;SDS011;50584;29.058;-110.966;2023-04-03T10:30:01;11.25;;;3.35;;
64244;SDS011;50584;29.058;-110.966;2023-04-03T10:34:59;18.17;;;3.63;;
64244;SDS011;50584;29.058;-110.966;2023-04-03T10:39:57;10.85;;;3.20;;
64244;SDS011;50584;29.058;-110.966;2023-04-03T10:52:52;7.95;;;3.03;;
64244;SDS011;50584;29.058;-110.966;2023-04-03T10:58:04;12.88;;;3.42;;
64244;SDS011;50584;29.058;-110.966;2023-04-03T11:00:40;13.32;;;3.13;;
64244;SDS011;50584;29.058;-110.966;2023-04-03T11:03:22;9.57;;;2.97;;
64244;SDS011;50584;29.058;-110.966;2023-04-03T11:05:51;9.80;;;2.55;;
64244;SDS011;50584;29.058;-110.966;2023-04-03T11:10:46;10.27;;;2.92;;
64244;SDS011;50584;29.058;-110.966;2023-04-03T11:13:15;5.53;;;2.58;;
64244;SDS011;50584;29.058;-110.966;2023-04-03T11:15:43;6.80;;;2.45;;
64244;SDS011;50584;29.058;-110.966;2023-04-03T11:18:13;7.93;;;3.25;;
64244;SDS011;50584;29.058;-110.966;2023-04-03T11:20:42;6.78;;;2.30;;
64244;SDS011;50584;29.058;-110.966;2023-04-03T11:25:45;8.68;;;2.90;;
64244;SDS011;50584;29.058;-110.966;2023-04-03T11:28:13;5.60;;;3.03;;
64244;SDS011;50584;29.058;-110.966;2023-04-03T11:30:52;12.68;;;3.53;;
64244;SDS011;50584;29.058;-110.966;2023-04-03T11:36:12;8.05;;;3.03;;
64244;SDS011;50584;29.058;-110.966;2023-04-03T11:38:43;5.15;;;2.38;;
64244;SDS011;50584;29.058;-110.966;2023-04-03T11:41:10;7.65;;;2.25;;
64244;SDS011;50584;29.058;-110.966;2023-04-03T11:43:41;6.63;;;2.42;;
64244;SDS011;50584;29.058;-110.966;2023-04-03T11:46:07;7.20;;;2.47;;
64244;SDS011;50584;29.058;-110.966;2023-04-03T11:48:43;5.50;;;2.60;;
64244;SDS011;50584;29.058;-110.966;2023-04-03T12:04:15;5.38;;;2.33;;
64244;SDS011;50584;29.058;-110.966;2023-04-03T12:06:47;3.72;;;1.90;;
64244;SDS011;50584;29.058;-110.966;2023-04-03T12:09:28;3.05;;;2.10;;
64244;SDS011;50584;29.058;-110.966;2023-04-03T12:11:54;5.07;;;2.05;;
64244;SDS011;50584;29.058;-110.966;2023-04-03T12:14:24;8.35;;;2.22;;
64244;SDS011;50584;29.058;-110.966;2023-04-03T12:16:52;10.15;;;2.47;;
64244;SDS011;50584;29.058;-110.966;2023-04-03T12:37:09;5.95;;;2.05;;
64244;SDS011;50584;29.058;-110.966;2023-04-03T12:39:49;5.10;;;2.15;;
64244;SDS011;50584;29.058;-110.966;2023-04-03T12:47:26;5.57;;;2.05;;
64244;SDS011;50584;29.058;-110.966;2023-04-03T12:49:52;5.60;;;2.03;;
64244;SDS011;50584;29.058;-110.966;2023-04-03T12:52:21;7.65;;;1.73;;
64244;SDS011;50584;29.058;-110.966;2023-04-03T12:54:49;10.45;;;2.75;;
64244;SDS011;50584;29.058;-110.966;2023-04-03T12:59:43;8.32;;;2.22;;
64244;SDS011;50584;29.058;-110.966;2023-04-03T13:02:32;12.38;;;2.15;;
64244;SDS011;50584;29.058;-110.966;2023-04-03T13:04:57;5.82;;;2.10;;
64244;SDS011;50584;29.058;-110.966;2023-04-03T13:07:25;3.65;;;2.05;;
64244;SDS011;50584;29.058;-110.966;2023-04-03T13:10:01;9.55;;;2.13;;
64244;SDS011;50584;29.058;-110.966;2023-04-03T13:12:27;7.57;;;2.05;;
64244;SDS011;50584;29.058;-110.966;2023-04-03T13:14:57;5.85;;;2.13;;
64244;SDS011;50584;29.058;-110.966;2023-04-03T13:17:24;6.75;;;2.20;;
64244;SDS011;50584;29.058;-110.966;2023-04-03T13:19:50;4.85;;;1.88;;
64244;SDS011;50584;29.058;-110.966;2023-04-03T13:22:24;5.30;;;1.98;;
64244;SDS011;50584;29.058;-110.966;2023-04-03T13:24:52;4.38;;;1.88;;
64244;SDS011;50584;29.058;-110.966;2023-04-03T13:27:18;4.47;;;2.15;;
64244;SDS011;50584;29.058;-110.966;2023-04-03T13:29:48;5.90;;;1.90;;
64244;SDS011;50584;29.058;-110.966;2023-04-03T13:32:19;9.93;;;2.17;;
64244;SDS011;50584;29.058;-110.966;2023-04-03T13:34:45;5.80;;;1.88;;
64244;SDS011;50584;29.058;-110.966;2023-04-03T13:37:25;10.35;;;2.03;;
64244;SDS011;50584;29.058;-110.966;2023-04-03T13:40:24;7.88;;;1.92;;
64244;SDS011;50584;29.058;-110.966;2023-04-03T13:42:43;8.90;;;2.03;;
64244;SDS011;50584;29.058;-110.966;2023-04-03T13:45:25;7.07;;;2.30;;
64244;SDS011;50584;29.058;-110.966;2023-04-03T13:47:54;14.32;;;2.80;;
64244;SDS011;50584;29.058;-110.966;2023-04-03T13:50:21;5.88;;;1.85;;
64244;SDS011;50584;29.058;-110.966;2023-04-03T13:57:52;3.90;;;2.15;;
64244;SDS011;50584;29.058;-110.966;2023-04-03T14:00:18;5.88;;;2.30;;
64244;SDS011;50584;29.058;-110.966;2023-04-03T14:02:46;3.60;;;2.13;;
64244;SDS011;50584;29.058;-110.966;2023-04-03T14:05:12;6.53;;;2.15;;
64244;SDS011;50584;29.058;-110.966;2023-04-03T14:07:39;10.43;;;2.90;;
64244;SDS011;50584;29.058;-110.966;2023-04-03T14:10:05;3.75;;;3.00;;
64244;SDS011;50584;29.058;-110.966;2023-04-03T14:12:35;6.80;;;3.67;;
64244;SDS011;50584;29.058;-110.966;2023-04-03T14:15:03;5.45;;;2.83;;
64244;SDS011;50584;29.058;-110.966;2023-04-03T14:17:29;17.40;;;2.95;;
64244;SDS011;50584;29.058;-110.966;2023-04-03T14:19:56;7.10;;;2.40;;
64244;SDS011;50584;29.058;-110.966;2023-04-03T14:22:25;5.03;;;2.10;;
64244;SDS011;50584;29.058;-110.966;2023-04-03T14:24:51;6.60;;;2.10;;
64244;SDS011;50584;29.058;-110.966;2023-04-03T14:27:21;6.07;;;2.30;;
64244;SDS011;50584;29.058;-110.966;2023-04-03T14:29:48;7.93;;;2.95;;
64244;SDS011;50584;29.058;-110.966;2023-04-03T14:32:16;15.07;;;2.80;;
64244;SDS011;50584;29.058;-110.966;2023-04-03T14:34:42;9.38;;;2.17;;
64244;SDS011;50584;29.058;-110.966;2023-04-03T14:37:16;10.07;;;2.50;;
64244;SDS011;50584;29.058;-110.966;2023-04-03T14:39:42;12.80;;;2.38;;
64244;SDS011;50584;29.058;-110.966;2023-04-03T14:42:12;19.85;;;2.88;;
64244;SDS011;50584;29.058;-110.966;2023-04-03T14:44:39;7.85;;;2.58;;
64244;SDS011;50584;29.058;-110.966;2023-04-03T14:47:08;6.35;;;2.28;;
64244;SDS011;50584;29.058;-110.966;2023-04-03T14:49:34;8.40;;;2.30;;
64244;SDS011;50584;29.058;-110.966;2023-04-03T14:52:00;7.88;;;2.53;;
64244;SDS011;50584;29.058;-110.966;2023-04-03T14:54:26;10.88;;;2.10;;
64244;SDS011;50584;29.058;-110.966;2023-04-03T14:56:56;7.95;;;1.95;;
64244;SDS011;50584;29.058;-110.966;2023-04-03T14:59:23;18.60;;;2.60;;
64244;SDS011;50584;29.058;-110.966;2023-04-03T15:01:48;5.28;;;2.25;;
64244;SDS011;50584;29.058;-110.966;2023-04-03T15:04:15;8.93;;;2.60;;
64244;SDS011;50584;29.058;-110.966;2023-04-03T15:06:42;10.50;;;2.35;;
64244;SDS011;50584;29.058;-110.966;2023-04-03T15:09:24;12.27;;;2.05;;
64244;SDS011;50584;29.058;-110.966;2023-04-03T15:11:51;8.35;;;2.05;;
64244;SDS011;50584;29.058;-110.966;2023-04-03T15:14:19;9.60;;;2.03;;
64244;SDS011;50584;29.058;-110.966;2023-04-03T15:16:46;9.68;;;2.03;;
64244;SDS011;50584;29.058;-110.966;2023-04-03T15:19:12;4.55;;;2.35;;
64244;SDS011;50584;29.058;-110.966;2023-04-03T15:21:38;14.40;;;2.85;;
64244;SDS011;50584;29.058;-110.966;2023-04-03T15:24:04;8.02;;;1.90;;
64244;SDS011;50584;29.058;-110.966;2023-04-03T15:26:30;12.00;;;2.53;;
64244;SDS011;50584;29.058;-110.966;2023-04-03T15:28:57;9.40;;;1.85;;
64244;SDS011;50584;29.058;-110.966;2023-04-03T15:31:23;10.00;;;2.22;;
64244;SDS011;50584;29.058;-110.966;2023-04-03T15:33:48;8.98;;;1.90;;
64244;SDS011;50584;29.058;-110.966;2023-04-03T15:36:14;6.18;;;1.80;;
64244;SDS011;50584;29.058;-110.966;2023-04-03T15:38:40;4.32;;;2.00;;
64244;SDS011;50584;29.058;-110.966;2023-04-03T15:41:06;4.10;;;1.83;;
64244;SDS011;50584;29.058;-110.966;2023-04-03T15:43:32;6.00;;;1.85;;